.
WxDataArchive / Data Records for 2010-04-04
2010-04-03 April 2010 2010-04-05

Data Records for Sunday, 04 April 2010

Time	Temp	Chill	HIndex	Humid	Dewpt	 Wind 	HiWind	WindDir	Rain 	Barom 
-----	----	-----	------	-----	-----	------	------	-------	-----	----- 
00:00	44.5	44.5	44.5	79	38.4	0	0	---	0.00	30.076 
00:05	44.1	44.1	44.1	80	38.3	0	0	---	0.00	30.076 
00:10	43.8	43.8	43.8	81	38.4	0	0	---	0.00	30.076 
00:15	43.3	43.3	43.3	81	37.9	0	0	---	0.00	30.088 
00:20	43.2	43.2	43.2	82	38.1	0	0	---	0.00	30.088 
00:25	43.1	43.1	43.1	83	38.3	0	0	---	0.00	30.088 
00:30	42.8	42.8	42.8	83	38.0	0	0	---	0.00	30.099 
00:35	42.5	42.5	42.5	84	38.0	0	0	---	0.00	30.099 
00:40	42.3	42.3	42.3	84	37.8	0	0	---	0.00	30.099 
00:45	42.2	42.2	42.2	84	37.7	0	0	---	0.00	30.102 
00:50	41.9	41.9	41.9	85	37.7	0	0	---	0.00	30.102 
00:55	41.6	41.6	41.6	85	37.4	0	0	---	0.00	30.102 
01:00	41.5	41.5	41.5	85	37.3	0	0	---	0.00	30.108 
01:05	41.2	41.2	41.2	86	37.3	0	0	---	0.00	30.108 
01:10	40.9	40.9	40.9	86	37.0	0	0	---	0.00	30.108 
01:15	40.6	40.6	40.6	86	36.7	0	0	---	0.00	30.115 
01:20	40.5	40.5	40.5	86	36.6	0	0	---	0.00	30.115 
01:25	40.3	40.3	40.3	87	36.7	0	0	---	0.00	30.115 
01:30	40.2	40.2	40.2	88	36.9	0	0	---	0.00	30.114 
01:35	40.2	40.2	40.2	88	36.9	0	0	---	0.00	30.114 
01:40	40.3	40.3	40.3	88	37.0	0	0	---	0.00	30.114 
01:45	40.3	40.3	40.3	89	37.3	0	0	---	0.00	30.122 
01:50	40.3	40.3	40.3	89	37.3	0	0	---	0.00	30.122 
01:55	40.5	40.5	40.5	90	37.8	0	0	---	0.00	30.122 
02:00	40.5	40.5	40.5	90	37.8	0	0	---	0.00	30.120 
02:05	40.3	40.3	40.3	90	37.6	0	0	---	0.00	30.120 
02:10	40.2	40.2	40.2	89	37.2	0	0	---	0.00	30.120 
02:15	39.9	39.9	39.9	89	36.9	0	0	---	0.00	30.123 
02:20	39.6	39.6	39.6	89	36.6	0	0	---	0.00	30.123 
02:25	39.5	39.5	39.5	90	36.8	0	0	---	0.00	30.123 
02:30	39.3	39.3	39.3	90	36.6	0	0	---	0.00	30.123 
02:35	39.1	39.1	39.1	90	36.4	0	0	---	0.00	30.123 
02:40	38.9	38.9	38.9	90	36.2	0	0	---	0.00	30.123 
02:45	38.6	38.6	38.6	90	35.9	0	0	---	0.00	30.125 
02:50	38.5	38.5	38.5	90	35.8	0	0	---	0.00	30.125 
02:55	38.3	38.3	38.3	90	35.6	0	0	---	0.00	30.125 
03:00	38.0	38.0	38.0	90	35.3	0	0	---	0.00	30.125 
03:05	37.8	37.8	37.8	90	35.1	0	0	---	0.00	30.125 
03:10	37.6	37.6	37.6	91	35.2	0	0	---	0.00	30.125 
03:15	37.5	37.5	37.5	91	35.1	0	0	---	0.00	30.125 
03:20	37.3	37.3	37.3	91	34.9	0	0	---	0.00	30.125 
03:25	37.2	37.2	37.2	91	34.8	0	0	---	0.00	30.125 
03:30	37.2	37.2	37.2	92	35.1	0	0	---	0.00	30.126 
03:35	37.0	37.0	37.0	92	34.9	0	0	---	0.00	30.126 
03:40	36.9	36.9	36.9	92	34.8	0	0	---	0.00	30.126 
03:45	36.8	36.8	36.8	92	34.7	0	0	---	0.00	30.123 
03:50	36.8	36.8	36.8	92	34.7	0	0	---	0.00	30.123 
03:55	36.6	36.6	36.6	92	34.5	0	0	---	0.00	30.123 
04:00	36.6	36.6	36.6	92	34.5	0	0	---	0.00	30.122 
04:05	36.5	36.5	36.5	92	34.4	0	0	---	0.00	30.122 
04:10	36.3	36.3	36.3	92	34.2	0	0	---	0.00	30.122 
04:15	36.2	36.2	36.2	92	34.1	0	0	---	0.00	30.118 
04:20	36.0	36.0	36.0	92	33.9	0	0	---	0.00	30.118 
04:25	35.9	35.9	35.9	92	33.8	0	0	---	0.00	30.118 
04:30	35.9	35.9	35.9	93	34.1	0	0	---	0.00	30.118 
04:35	35.8	35.8	35.8	92	33.7	0	0	---	0.00	30.118 
04:40	35.6	35.6	35.6	92	33.5	0	0	---	0.00	30.118 
04:45	35.3	35.3	35.3	92	33.2	0	0	---	0.00	30.112 
04:50	35.2	35.2	35.2	92	33.1	0	0	---	0.00	30.112 
04:55	35.0	35.0	35.0	93	33.2	0	0	---	0.00	30.112 
05:00	34.9	34.9	34.9	93	33.1	0	0	---	0.00	30.111 
05:05	34.9	34.9	34.9	93	33.1	0	0	---	0.00	30.111 
05:10	34.7	34.7	34.7	93	32.9	0	0	---	0.00	30.111 
05:15	34.6	34.6	34.6	93	32.8	0	0	---	0.00	30.114 
05:20	34.6	34.6	34.6	93	32.8	0	0	---	0.00	30.114 
05:25	34.7	34.7	34.7	93	32.9	0	0	---	0.00	30.114 
05:30	34.7	34.7	34.7	93	32.9	0	0	---	0.00	30.117 
05:35	34.6	34.6	34.6	93	32.8	0	0	---	0.00	30.117 
05:40	34.6	34.6	34.6	93	32.8	0	0	---	0.00	30.117 
05:45	34.6	34.6	34.6	93	32.8	0	0	---	0.00	30.119 
05:50	34.7	34.7	34.7	94	33.2	0	0	---	0.00	30.119 
05:55	34.7	34.7	34.7	94	33.2	0	0	---	0.00	30.119 
06:00	34.6	34.6	34.6	93	32.8	0	0	---	0.00	30.124 
06:05	34.4	34.4	34.4	94	32.9	0	0	---	0.00	30.124 
06:10	34.3	34.3	34.3	93	32.5	0	0	---	0.00	30.124 
06:15	34.3	34.3	34.3	94	32.8	0	0	---	0.00	30.124 
06:20	34.3	34.3	34.3	94	32.8	0	0	---	0.00	30.124 
06:25	34.1	34.1	34.1	94	32.6	0	0	---	0.00	30.124 
06:30	34.3	34.3	34.3	94	32.8	0	0	---	0.00	30.133 
06:35	34.4	34.4	34.4	94	32.9	0	0	---	0.00	30.133 
06:40	34.3	34.3	34.3	94	32.8	0	0	---	0.00	30.133 
06:45	34.1	34.1	34.1	94	32.6	0	0	---	0.00	30.137 
06:50	34.0	34.0	34.0	94	32.5	0	0	---	0.00	30.137 
06:55	33.8	33.8	33.8	94	32.3	0	0	---	0.00	30.137 
07:00	33.8	33.8	33.8	94	32.3	0	0	---	0.00	30.138 
07:05	33.8	33.8	33.8	94	32.3	0	0	---	0.00	30.138 
07:10	33.8	33.8	33.8	94	32.3	0	0	---	0.00	30.138 
07:15	33.7	33.7	33.7	94	32.2	0	0	---	0.00	30.141 
07:20	33.5	33.5	33.5	94	32.0	0	0	---	0.00	30.141 
07:25	33.5	33.5	33.5	94	32.0	0	0	---	0.00	30.141 
07:30	33.7	33.7	33.7	94	32.2	0	0	---	0.00	30.144 
07:35	33.8	33.8	33.8	94	32.3	0	0	---	0.00	30.144 
07:40	34.1	34.1	34.1	94	32.6	0	0	---	0.00	30.144 
07:45	34.1	34.1	34.1	95	32.8	0	0	---	0.00	30.157 
07:50	34.4	34.4	34.4	95	33.1	0	0	---	0.00	30.157 
07:55	34.7	34.7	34.7	95	33.4	0	0	---	0.00	30.157 
08:00	35.2	35.2	35.2	95	33.9	0	0	---	0.00	30.156 
08:05	35.6	35.6	35.6	95	34.3	0	0	---	0.00	30.156 
08:10	36.3	36.3	36.3	96	35.3	0	0	---	0.00	30.156 
08:15	37.2	37.2	37.2	96	36.2	0	0	---	0.00	30.157 
08:20	38.3	38.3	38.3	96	37.3	0	0	---	0.00	30.157 
08:25	39.3	39.3	39.3	96	38.3	0	0	---	0.00	30.157 
08:30	40.2	40.2	40.2	96	39.2	0	0	---	0.00	30.160 
08:35	41.1	41.1	41.1	96	40.0	0	0	---	0.00	30.160 
08:40	41.8	41.8	41.8	96	40.7	0	0	---	0.00	30.160 
08:45	42.5	42.5	42.5	96	41.4	0	0	---	0.00	30.162 
08:50	43.3	43.3	43.3	96	42.2	0	1	225	0.00	30.162 
08:55	44.1	44.1	44.1	96	43.0	0	2	225	0.00	30.162 
09:00	44.3	44.3	44.3	95	43.0	0	2	225	0.00	30.161 
09:05	44.9	44.9	44.9	93	43.0	0	2	225	0.00	30.161 
09:10	45.8	45.8	45.8	92	43.6	0	3	225	0.00	30.161 
09:15	46.4	46.4	46.4	90	43.6	0	3	112	0.00	30.155 
09:20	46.8	46.8	46.8	89	43.7	0	2	112	0.00	30.155 
09:25	47.3	47.3	47.3	88	43.9	1	2	112	0.00	30.155 
09:30	47.6	47.6	47.6	87	43.9	0	4	112	0.00	30.152 
09:35	48.0	48.0	48.0	87	44.3	1	3	112	0.01	30.152 
09:40	48.3	48.3	48.3	86	44.3	1	3	112	0.00	30.152 
09:45	48.9	48.9	48.9	86	44.9	0	2	112	0.00	30.149 
09:50	49.5	49.5	49.5	85	45.2	0	2	112	0.00	30.149 
09:55	50.1	50.1	50.1	84	45.5	0	2	112	0.00	30.149 
10:00	50.8	50.8	50.8	83	45.8	1	3	112	0.00	30.145 
10:05	51.9	51.9	51.9	81	46.3	1	4	112	0.00	30.145 
10:10	53.1	53.1	53.1	78	46.4	1	5	112	0.00	30.145 
10:15	53.9	53.9	53.9	73	45.4	1	3	112	0.00	30.144 
10:20	54.8	54.8	54.8	73	46.3	1	4	68	0.00	30.144 
10:25	55.4	55.4	55.4	70	45.8	2	4	90	0.00	30.144 
10:30	56.0	56.0	56.0	69	46.0	2	4	90	0.00	30.141 
10:35	56.5	56.5	56.5	69	46.5	1	5	135	0.00	30.141 
10:40	57.0	57.0	57.0	67	46.2	1	5	68	0.00	30.141 
10:45	57.3	57.3	57.3	66	46.0	2	6	90	0.00	30.134 
10:50	57.8	57.8	57.8	66	46.5	2	4	90	0.00	30.134 
10:55	58.3	58.3	58.3	65	46.6	2	5	90	0.00	30.134 
11:00	58.7	58.7	58.7	63	46.1	2	5	90	0.00	30.133 
11:05	59.2	59.2	59.2	63	46.6	1	4	90	0.00	30.133 
11:10	59.6	59.6	59.6	63	47.0	1	3	338	0.00	30.133 
11:15	59.9	59.9	59.9	60	46.0	2	7	90	0.00	30.138 
11:20	60.4	60.4	60.4	61	46.9	1	5	135	0.00	30.138 
11:25	61.0	61.0	61.0	58	46.1	2	7	90	0.00	30.138 
11:30	61.2	61.2	61.2	60	47.2	2	6	90	0.00	30.134 
11:35	61.3	61.3	61.3	58	46.4	2	6	68	0.00	30.134 
11:40	61.3	61.3	61.3	58	46.4	2	7	270	0.00	30.134 
11:45	61.5	61.5	61.5	60	47.5	1	5	315	0.00	30.128 
11:50	61.8	61.8	61.8	58	46.9	2	6	90	0.00	30.128 
11:55	62.4	62.4	62.4	58	47.4	2	6	225	0.00	30.128 
12:00	62.7	62.7	62.7	57	47.2	1	5	292	0.00	30.123 
12:05	63.2	63.2	63.2	55	46.8	3	5	112	0.00	30.123 
12:10	63.4	63.4	63.4	54	46.5	2	7	248	0.00	30.123 
12:15	63.5	63.5	63.5	57	48.0	2	10	248	0.00	30.124 
12:20	63.7	63.7	63.7	54	46.7	2	6	248	0.00	30.124 
12:25	64.2	64.2	64.2	53	46.7	2	5	112	0.00	30.124 
12:30	64.5	64.5	64.5	54	47.5	1	5	90	0.00	30.114 
12:35	64.7	64.7	64.7	51	46.1	2	7	248	0.00	30.114 
12:40	64.7	64.7	64.7	52	46.7	2	8	248	0.00	30.114 
12:45	65.0	65.0	65.0	52	46.9	2	7	292	0.00	30.113 
12:50	65.5	65.5	65.5	52	47.4	1	4	202	0.00	30.113 
12:55	66.3	66.3	66.3	48	46.0	3	7	112	0.00	30.113 
13:00	66.4	66.4	66.4	46	45.0	3	7	112	0.00	30.103 
13:05	66.6	66.6	66.6	48	46.3	3	8	292	0.00	30.103 
13:10	66.9	66.9	66.9	46	45.4	3	9	248	0.00	30.103 
13:15	67.1	67.1	67.1	45	45.0	3	9	90	0.00	30.094 
13:20	67.6	67.6	67.6	48	47.2	2	5	90	0.00	30.094 
13:25	67.8	67.8	67.8	42	43.9	3	6	112	0.00	30.094 
13:30	67.9	67.9	67.9	43	44.6	3	10	68	0.00	30.092 
13:35	67.9	67.9	67.9	43	44.6	2	7	248	0.00	30.092 
13:40	67.8	67.8	67.8	41	43.2	2	6	248	0.00	30.092 
13:45	67.9	67.9	67.9	41	43.3	2	6	248	0.00	30.087 
13:50	68.3	68.3	68.3	39	42.4	3	11	248	0.00	30.087 
13:55	68.6	68.6	68.6	38	42.0	3	10	90	0.00	30.087 
14:00	68.9	68.9	68.9	41	44.2	3	9	90	0.00	30.071 
14:05	69.1	69.1	69.1	36	41.0	4	9	248	0.00	30.071 
14:10	69.3	69.3	69.3	35	40.5	3	9	270	0.00	30.071 
14:15	69.6	69.6	69.6	36	41.5	3	13	270	0.00	30.072 
14:20	70.1	70.1	70.1	34	40.4	3	11	270	0.00	30.072 
14:25	70.4	70.4	70.4	36	42.2	3	10	270	0.00	30.072 
14:30	70.6	70.6	70.6	35	41.6	3	9	248	0.00	30.063 
14:35	70.8	70.8	70.8	35	41.8	4	10	90	0.00	30.063 
14:40	71.3	71.3	71.3	33	40.7	2	6	248	0.00	30.063 
14:45	71.8	71.8	71.8	28	36.9	3	9	270	0.00	30.060 
14:50	71.6	71.6	71.6	28	36.8	4	13	248	0.00	30.060 
14:55	70.9	70.9	70.9	32	39.6	3	9	270	0.00	30.060 
15:00	70.4	70.4	70.4	31	38.3	3	8	270	0.00	30.057 
15:05	70.3	70.3	70.3	31	38.2	3	9	248	0.00	30.057 
15:10	70.6	70.6	70.6	33	40.1	2	7	248	0.00	30.057 
15:15	71.3	71.3	71.3	31	39.1	2	5	248	0.00	30.041 
15:20	72.1	72.1	72.1	29	38.1	2	10	248	0.00	30.041 
15:25	72.5	72.5	72.5	31	40.1	3	6	22	0.00	30.041 
15:30	72.7	72.7	72.7	31	40.3	4	13	248	0.00	30.029 
15:35	72.3	72.3	72.3	30	39.1	4	11	270	0.00	30.029 
15:40	72.5	72.5	72.5	27	36.6	3	9	90	0.00	30.029 
15:45	72.5	72.5	72.5	31	40.1	5	12	112	0.00	30.027 
15:50	72.7	72.7	72.7	29	38.6	3	11	248	0.00	30.027 
15:55	73.2	73.2	73.2	29	39.0	3	9	248	0.00	30.027 
16:00	73.5	73.5	73.5	33	42.6	1	6	68	0.00	30.028 
16:05	73.2	73.2	73.2	27	37.2	4	12	270	0.00	30.028 
16:10	72.7	72.7	72.7	27	36.8	4	9	270	0.00	30.028 
16:15	72.1	72.1	72.1	30	38.9	3	11	292	0.00	30.022 
16:20	72.3	72.3	72.3	29	38.3	3	6	248	0.00	30.022 
16:25	72.7	72.7	72.7	30	39.5	2	6	248	0.00	30.022 
16:30	72.7	72.7	72.7	28	37.7	2	8	248	0.00	30.018 
16:35	72.5	72.5	72.5	31	40.1	3	11	90	0.00	30.018 
16:40	72.3	72.3	72.3	28	37.4	3	8	90	0.00	30.018 
16:45	72.1	72.1	72.1	31	39.8	4	11	90	0.00	30.017 
16:50	72.1	72.1	72.1	28	37.2	3	10	90	0.00	30.017 
16:55	72.1	72.1	72.1	29	38.1	2	6	338	0.00	30.017 
17:00	72.5	72.5	72.5	29	38.4	2	6	112	0.00	30.003 
17:05	72.7	72.7	72.7	30	39.5	3	10	292	0.00	30.003 
17:10	72.5	72.5	72.5	28	37.5	3	11	248	0.00	30.003 
17:15	72.3	72.3	72.3	28	37.4	3	10	248	0.00	30.007 
17:20	72.1	72.1	72.1	28	37.2	3	12	248	0.00	30.007 
17:25	71.6	71.6	71.6	29	37.6	2	5	90	0.00	30.007 
17:30	71.3	71.3	71.3	29	37.4	3	8	248	0.00	30.003 
17:35	71.1	71.1	71.1	30	38.1	2	6	225	0.00	30.003 
17:40	71.1	71.1	71.1	31	38.9	1	5	248	0.00	30.003 
17:45	70.8	70.8	70.8	31	38.7	2	6	112	0.00	30.000 
17:50	70.6	70.6	70.6	30	37.6	2	6	0	0.00	30.000 
17:55	70.6	70.6	70.6	32	39.3	2	11	248	0.00	30.000 
18:00	70.3	70.3	70.3	32	39.0	1	3	292	0.00	30.000 
18:05	70.3	70.3	70.3	31	38.2	2	5	112	0.00	30.000 
18:10	70.3	70.3	70.3	31	38.2	2	11	338	0.00	30.000 
18:15	70.3	70.3	70.3	32	39.0	1	6	68	0.00	29.995 
18:20	70.1	70.1	70.1	31	38.1	2	4	68	0.00	29.995 
18:25	70.1	70.1	70.1	32	38.9	2	6	112	0.00	29.995 
18:30	69.9	69.9	69.9	34	40.2	2	6	90	0.00	29.982 
18:35	69.9	69.9	69.9	33	39.5	1	6	112	0.00	29.982 
18:40	69.8	69.8	69.8	34	40.2	1	5	90	0.00	29.982 
18:45	69.6	69.6	69.6	32	38.4	2	5	112	0.00	29.972 
18:50	69.6	69.6	69.6	32	38.4	2	5	90	0.00	29.972 
18:55	69.6	69.6	69.6	32	38.4	3	10	90	0.00	29.972 
19:00	69.6	69.6	69.6	32	38.4	3	7	90	0.00	29.956 
19:05	69.4	69.4	69.4	33	39.0	2	6	90	0.00	29.956 
19:10	69.4	69.4	69.4	33	39.0	2	5	112	0.00	29.956 
19:15	69.1	69.1	69.1	33	38.8	2	5	90	0.00	29.956 
19:20	68.9	68.9	68.9	34	39.4	2	5	90	0.00	29.956 
19:25	68.9	68.9	68.9	35	40.1	2	7	112	0.00	29.956 
19:30	68.8	68.8	68.8	35	40.0	1	6	90	0.00	29.963 
19:35	68.6	68.6	68.6	35	39.8	1	6	68	0.00	29.963 
19:40	68.4	68.4	68.4	35	39.7	1	4	90	0.00	29.963 
19:45	68.3	68.3	68.3	35	39.6	1	4	90	0.00	29.969 
19:50	68.1	68.1	68.1	35	39.4	1	5	112	0.00	29.969 
19:55	68.1	68.1	68.1	35	39.4	1	4	90	0.00	29.969 
20:00	67.9	67.9	67.9	35	39.2	1	6	90	0.00	29.960 
20:05	67.9	67.9	67.9	35	39.2	1	4	112	0.00	29.960 
20:10	67.8	67.8	67.8	35	39.1	2	4	112	0.00	29.960 
20:15	67.6	67.6	67.6	35	39.0	2	5	112	0.00	29.947 
20:20	67.4	67.4	67.4	36	39.5	1	3	135	0.00	29.947 
20:25	67.3	67.3	67.3	36	39.4	1	3	135	0.00	29.947 
20:30	67.1	67.1	67.1	37	40.0	1	5	112	0.00	29.945 
20:35	66.9	66.9	66.9	37	39.8	2	4	135	0.00	29.945 
20:40	66.8	66.8	66.8	35	38.3	1	4	135	0.00	29.945 
20:45	66.4	66.4	66.4	39	40.7	1	5	135	0.00	29.933 
20:50	66.1	66.1	66.1	40	41.1	1	3	112	0.00	29.933 
20:55	65.6	65.6	65.6	40	40.6	1	3	112	0.00	29.933 
21:00	65.3	65.3	65.3	41	41.0	1	3	135	0.00	29.934 
21:05	65.0	65.0	65.0	42	41.3	1	3	135	0.00	29.934 
21:10	64.7	64.7	64.7	42	41.1	1	3	135	0.00	29.934 
21:15	64.5	64.5	64.5	42	40.9	1	3	135	0.00	29.919 
21:20	64.3	64.3	64.3	43	41.3	1	4	90	0.00	29.919 
21:25	64.2	64.2	64.2	43	41.2	1	4	112	0.00	29.919 
21:30	64.0	64.0	64.0	43	41.1	1	3	90	0.00	29.924 
21:35	63.7	63.7	63.7	43	40.8	1	3	112	0.00	29.924 
21:40	63.5	63.5	63.5	43	40.6	0	2	90	0.00	29.924 
21:45	63.4	63.4	63.4	43	40.5	0	2	135	0.00	29.931 
21:50	63.2	63.2	63.2	44	40.9	0	2	135	0.00	29.931 
21:55	62.9	62.9	62.9	45	41.2	0	2	135	0.00	29.931 
22:00	62.6	62.6	62.6	45	41.0	0	2	135	0.00	29.927 
22:05	62.4	62.4	62.4	45	40.8	1	3	135	0.00	29.927 
22:10	62.4	62.4	62.4	45	40.8	2	5	112	0.00	29.927 
22:15	62.6	62.6	62.6	45	41.0	1	4	112	0.00	29.910 
22:20	62.6	62.6	62.6	45	41.0	1	4	112	0.00	29.910 
22:25	62.7	62.7	62.7	45	41.0	1	4	112	0.00	29.910 
22:30	62.9	62.9	62.9	44	40.6	3	7	90	0.00	29.907 
22:35	63.2	63.2	63.2	44	40.9	2	6	90	0.00	29.907 
22:40	63.4	63.4	63.4	43	40.5	2	6	112	0.00	29.907 
22:45	63.7	63.7	63.7	43	40.8	2	6	112	0.00	29.899 
22:50	64.0	64.0	64.0	42	40.4	2	7	90	0.00	29.899 
22:55	64.3	64.3	64.3	42	40.7	3	6	112	0.00	29.899 
23:00	64.5	64.5	64.5	41	40.3	2	5	90	0.00	29.894 
23:05	64.5	64.5	64.5	41	40.3	2	6	90	0.00	29.894 
23:10	64.5	64.5	64.5	41	40.3	2	4	90	0.00	29.894 
23:15	64.5	64.5	64.5	41	40.3	2	8	90	0.00	29.887 
23:20	64.7	64.7	64.7	41	40.5	2	5	135	0.00	29.887 
23:25	64.7	64.7	64.7	41	40.5	3	6	90	0.00	29.887 
23:30	64.8	64.8	64.8	41	40.5	3	9	90	0.00	29.882 
23:35	64.8	64.8	64.8	41	40.5	3	12	90	0.00	29.882 
23:40	64.8	64.8	64.8	41	40.5	3	6	90	0.00	29.882 
23:45	64.8	64.8	64.8	41	40.5	2	9	90	0.00	29.877 
23:50	64.8	64.8	64.8	41	40.5	3	11	90	0.00	29.877 
23:55	64.7	64.7	64.7	41	40.5	2	11	90	0.00	29.877 

CoCoRaHS
IN-AL-39
A2 Web Hosting
Creative Commons License
GoDaddy
search engine by freefind advanced

loaded 2018-11-19 18:39:29 • last modified 2010-11-18 10:43:29
Privacy PolicyDisclaimer
• wx.awcolley.com is powered by PmWiki v.2002016 •
• all content (unless otherwise noted) © 2018 A W Colley